マニラ/ニノイ・アキノ の空港の天気 - METARとTAF

ニノイ・アキノ国際空港 ( RPLL / MNL ) - フィリピン マニラ
飛行場実況気象(Metar)
観測時間05/28 09:00 PHT (05/28 01:00 UTC)
風向・風速東 3m/s
視程10km以上
天気現象
全天の4割程度の雲 雲底高度 700m
気温33℃
湿度63%
気圧1012hPa
METARRPLL 280100Z 10005KT 060V170 9999 SCT023 33/25 Q1012 NOSIG RMK A2988
過去の天気等 Google飛行場航空写真 Wunderground天気予報

過去48時間のMETAR

飛行場予報(TAF)
発表時間: 5/28 07:00 PHT (5/27 23:00 UTC)
予報対象時間: 28日8時 PHT ~ 29日14時 PHT
風向・風速東南東 3m/s
視程10km以上
少しの雲 雲底高度 760m
全天の4割程度の雲 雲底高度 9140m
28日8時 PHT ~ 28日14時 PHT に一時的に
風向・風速西南西 5m/s
少しの積乱雲 雲底高度 670m
少しの雲 雲底高度 700m
全天の8割程度の雲 雲底高度 3050m
28日14時 PHT ~ 28日20時 PHT に一時的に
風向・風速南西 5m/s
天気現象弱い雷雨
少しの積乱雲 雲底高度 670m
全天の4割程度の雲 雲底高度 700m
全天の8割程度の雲 雲底高度 2740m
TAF RPLL 272300Z 2800/2906 12006KT 9999 FEW025 SCT300 TX35/2806Z TN27/2821Z
TEMPO 2800/2806 25010KT FEW022CB FEW023 BKN100
TEMPO 2806/2812 23010KT -TSRA FEW022CB SCT023 BKN090